Observations for ROME URBE IT-AFB, Italy (LIRU)

LIRU 240850Z VRB03KT 310V090 CAVOK 30/18 Q1016  
LIRU 240750Z 36004KT CAVOK 28/18 Q1016  
LIRU 240650Z 02007KT CAVOK 26/19 Q1016  
LIRU 240600Z 01005KT 330V040 CAVOK 24/19 Q1016
LIRU 231750Z 21006KT CAVOK 29/18 Q1013  
LIRU 231650Z 23008KT CAVOK 30/14 Q1013  
LIRU 231550Z 25008KT CAVOK 31/17 Q1013  
LIRU 231450Z 26008KT 220V290 CAVOK 32/18 Q1013  
LIRU 231350Z 25012KT 230V290 CAVOK 31/20 Q1013  
LIRU 231250Z 24006KT 9999 SCT040 32/21 Q1013
LIRU 231150Z 23007KT 9999 SCT040 31/21 Q1014
LIRU 231050Z 25005KT CAVOK 31/18 Q1014  
LIRU 230950Z VRB02KT 9999 FEW040 30/19 Q1014
LIRU 230850Z VRB03KT CAVOK 28/19 Q1014